Fishers Island, NY

2:32 AM EST on February 23, 2017 (GMT -0500)
Hawks Nest Point | | Change Station
Active Advisory: Dense Fog Advisory

Elev 91 ft 41.27 °N, 72.01 °W | Updated 18 seconds ago

Fog
Fog
40.8 °F
Feels Like 41 °F
N
3.0
Wind Variable Wind from NE
Gusts 3.0 mph

Today
High -- | Low -- °F
--% Chance of Precip.
Yesterday
High -- | Low -- °F
Precip. -- in
Pressure 29.91 in
Visibility 0.2 miles
Clouds
Windchill 41 °F
Dew Point 37 °F
Humidity 85%
Rainfall 0.00 in
Snow Depth Not available.
6:31 AM 5:32 PM
Waning Crescent, 12% visible
SPECI KGON 230726Z AUTO 00000KT 1/4SM R05/0700V1200FT FG VV002 03/03 A2991 RMK AO2 T00330028 $
Pressure 29.91 in
Visibility 0.2 miles
Clouds
Windchill 41 °F
Dew Point 37 °F
Humidity 85%
Rainfall 0.00 in
Snow Depth Not available.
6:31 AM 5:32 PM
Waning Crescent, 12% visible
SPECI KGON 230726Z AUTO 00000KT 1/4SM R05/0700V1200FT FG VV002 03/03 A2991 RMK AO2 T00330028 $

Get Your Daily Forecast Email!

Thanks for signing up!

Be on the lookout for a verification email in your inbox.

You'll start receiving the daily forecast at 8 AM.

×

10-Day Weather Forecast

Almanac

Astronomy

Feb. 23, 2017 Rise Set
Actual Time
Civil Twilight
Nautical Twilight
Astronomical Twilight
Moon
Length of Visible Light
Length of Day
Tomorrow will be .
, % of the Moon is Illuminated

Today's Extremes

State Highs State Lows

Community

WunderPhotos

Upload Photos

1,962,540 photos uploaded!

WunderBlog® & News

Nearby

Air Quality

  Air Quality AQ Index Pollutant
Not available.

Snow Depth

Station Depth Elevation

Earthquake Activity

City Distance Mag. Time & Date
Minimum magnitude displayed is 2.5.

Coastal Water Temperatures

Place Temperature

Stations

Nearby Weather Stations

Station Location Temp. Windchill Dew Point Humidity Wind Precip. Elev Updated Type
                   

Watches & Warnings

Dense Fog Advisory
Issued: 11:56 PM EST Feb. 22, 2017 – National Weather Service

... Dense fog advisory remains in effect until 10 am EST
Thursday...

* visibilities... one quarter mile or less at times.

* Timing... into Thursday morning.

* Impacts... limited visibilities will make travel difficult.

Precautionary/preparedness actions...

A dense fog advisory means visibilities will frequently be
reduced to one quarter mile or less. If driving... slow down... use
your low beam headlights... and leave plenty of distance ahead of
you in case a sudden stop is needed.